createdAt,value
2023-09-21T00:00:32.616Z,20.000
2023-09-21T00:01:27.107Z,20.000
2023-09-21T00:02:21.814Z,20.000
2023-09-21T00:03:31.913Z,20.000
2023-09-21T00:04:34.106Z,20.000
2023-09-21T00:07:29.582Z,20.000
2023-09-21T00:08:29.535Z,20.000
2023-09-21T00:09:21.859Z,20.000
2023-09-21T00:10:32.596Z,20.000
2023-09-21T00:11:27.577Z,20.000
2023-09-21T00:12:20.928Z,20.000
2023-09-21T00:13:22.481Z,20.000
2023-09-21T00:16:21.697Z,20.000
2023-09-21T00:17:31.528Z,20.000
2023-09-21T00:18:29.239Z,20.000
2023-09-21T00:19:23.731Z,20.000
2023-09-21T00:20:19.601Z,20.000
2023-09-21T00:21:20.427Z,20.000
2023-09-21T00:22:25.838Z,20.000
2023-09-21T00:23:21.489Z,20.000
2023-09-21T00:24:21.757Z,19.950
2023-09-21T00:25:27.210Z,20.000
2023-09-21T00:26:25.587Z,20.000
2023-09-21T00:27:19.777Z,20.000
2023-09-21T00:28:24.365Z,20.000
2023-09-21T00:29:25.275Z,20.000
2023-09-21T00:30:21.460Z,20.000
2023-09-21T00:31:27.848Z,20.000
2023-09-21T00:32:27.343Z,20.000
2023-09-21T00:33:24.974Z,20.000
2023-09-21T00:34:20.819Z,20.000
2023-09-21T00:35:29.525Z,20.000
2023-09-21T00:36:21.576Z,20.000
2023-09-21T00:37:23.498Z,20.000
2023-09-21T00:38:33.176Z,20.000
2023-09-21T00:39:23.169Z,20.000
2023-09-21T00:40:23.249Z,20.000
2023-09-21T00:41:20.425Z,20.000
2023-09-21T00:42:33.928Z,20.000
2023-09-21T00:44:21.080Z,20.000
2023-09-21T00:45:33.889Z,19.900
2023-09-21T00:46:29.779Z,19.900
2023-09-21T00:47:21.582Z,19.900
2023-09-21T00:48:21.589Z,19.900
2023-09-21T00:49:29.708Z,19.900
2023-09-21T00:50:27.167Z,19.900
2023-09-21T00:51:22.409Z,19.900
2023-09-21T00:53:27.727Z,19.900
2023-09-21T00:54:24.299Z,19.900
2023-09-21T00:55:19.721Z,19.900
2023-09-21T00:57:25.669Z,19.900
2023-09-21T00:58:23.520Z,19.900
2023-09-21T00:59:32.526Z,19.900
2023-09-21T01:01:29.284Z,19.900
2023-09-21T01:02:21.831Z,19.900
2023-09-21T01:03:29.908Z,19.900
2023-09-21T01:04:32.257Z,19.900
2023-09-21T01:12:37.785Z,19.900
2023-09-21T01:13:35.038Z,19.900
2023-09-21T01:15:41.728Z,19.900
2023-09-21T01:16:26.516Z,19.800
2023-09-21T01:17:23.083Z,19.800
2023-09-21T01:19:16.049Z,19.800
2023-09-21T01:19:48.043Z,19.900
2023-09-21T01:20:34.623Z,19.900
2023-09-21T01:26:24.372Z,19.800
2023-09-21T01:27:38.752Z,19.800
2023-09-21T01:28:29.518Z,19.800
2023-09-21T01:30:19.803Z,19.800
2023-09-21T01:31:28.475Z,19.800
2023-09-21T01:32:25.701Z,19.800
2023-09-21T01:33:21.452Z,19.800
2023-09-21T01:34:33.337Z,19.800
2023-09-21T01:35:21.450Z,19.800
2023-09-21T01:36:23.515Z,19.800
2023-09-21T01:37:35.158Z,19.800
2023-09-21T01:39:26.941Z,19.800
2023-09-21T01:40:22.291Z,19.850
2023-09-21T01:41:32.265Z,19.800
2023-09-21T01:42:25.699Z,19.800
2023-09-21T01:43:25.451Z,19.800
2023-09-21T01:44:19.419Z,19.800
2023-09-21T01:45:30.586Z,19.800
2023-09-21T01:46:19.413Z,19.800
2023-09-21T01:47:25.999Z,19.800
2023-09-21T01:48:33.192Z,19.800
2023-09-21T01:49:44.234Z,19.900
2023-09-21T01:51:19.832Z,19.900
2023-09-21T01:52:20.369Z,19.900
2023-09-21T01:53:22.557Z,19.900
2023-09-21T01:54:21.988Z,19.900
2023-09-21T01:55:21.020Z,19.900
2023-09-21T01:56:27.561Z,19.900
2023-09-21T01:57:25.797Z,19.900
2023-09-21T01:58:22.084Z,19.900
2023-09-21T01:59:26.570Z,20.000
2023-09-21T02:00:41.675Z,20.000
2023-09-21T02:01:21.847Z,20.000
2023-09-21T02:02:26.746Z,20.000
2023-09-21T02:03:27.680Z,20.000
2023-09-21T02:04:20.299Z,20.000
2023-09-21T02:05:20.829Z,19.900
2023-09-21T02:06:31.543Z,19.900
2023-09-21T02:07:22.357Z,19.900
2023-09-21T02:08:22.549Z,19.900
2023-09-21T02:09:32.957Z,19.900
2023-09-21T02:10:22.308Z,19.900
2023-09-21T02:11:37.855Z,19.900
2023-09-21T02:12:23.680Z,19.900
2023-09-21T02:13:31.304Z,19.900
2023-09-21T02:14:26.477Z,19.900
2023-09-21T02:16:32.945Z,19.900
2023-09-21T02:17:29.373Z,19.900
2023-09-21T02:18:24.403Z,19.900
2023-09-21T02:19:19.739Z,19.900
2023-09-21T02:20:31.445Z,19.900
2023-09-21T02:21:25.764Z,19.900
2023-09-21T02:22:23.557Z,19.900
2023-09-21T02:23:31.801Z,19.900
2023-09-21T02:25:23.401Z,19.900
2023-09-21T02:26:33.645Z,19.900
2023-09-21T02:27:30.870Z,19.900
2023-09-21T02:28:27.426Z,19.900
2023-09-21T02:29:23.116Z,19.900
2023-09-21T02:30:21.118Z,19.900
2023-09-21T02:31:27.685Z,19.900
2023-09-21T02:32:25.635Z,19.900
2023-09-21T02:33:20.167Z,19.900
2023-09-21T02:34:31.913Z,19.900
2023-09-21T02:35:27.555Z,19.900
2023-09-21T02:36:22.103Z,19.900
2023-09-21T02:37:24.769Z,19.900
2023-09-21T02:38:27.761Z,19.900
2023-09-21T02:39:25.758Z,19.900
2023-09-21T02:40:20.395Z,19.900
2023-09-21T02:41:32.620Z,19.900
2023-09-21T02:42:26.508Z,19.900
2023-09-21T02:43:23.415Z,19.900
2023-09-21T02:44:32.827Z,19.900
2023-09-21T02:45:21.891Z,19.900
2023-09-21T02:46:23.827Z,19.900
2023-09-21T02:47:20.109Z,19.800
2023-09-21T02:48:22.759Z,19.800
2023-09-21T02:49:25.586Z,19.800
2023-09-21T02:50:21.952Z,19.800
2023-09-21T02:51:20.538Z,19.800
2023-09-21T02:52:27.751Z,19.800
2023-09-21T02:53:24.937Z,19.800
2023-09-21T02:54:19.770Z,19.800
2023-09-21T02:55:25.322Z,19.800
2023-09-21T02:56:25.496Z,19.800
2023-09-21T02:57:23.079Z,19.700
2023-09-21T02:58:23.555Z,19.700
2023-09-21T02:59:28.313Z,19.700
2023-09-21T03:00:24.982Z,19.700
2023-09-21T03:01:20.949Z,19.700
2023-09-21T03:02:29.477Z,19.700
2023-09-21T03:03:22.324Z,19.700
2023-09-21T03:04:22.270Z,19.800
2023-09-21T03:05:28.773Z,19.800
2023-09-21T03:06:27.702Z,19.800
2023-09-21T03:07:23.493Z,19.700
2023-09-21T03:08:21.975Z,19.700
2023-09-21T03:10:26.781Z,19.700
2023-09-21T03:11:24.377Z,19.700
2023-09-21T03:12:33.220Z,19.800
2023-09-21T03:14:25.251Z,19.800
2023-09-21T03:15:19.752Z,19.800
2023-09-21T03:16:24.521Z,19.800
2023-09-21T03:17:25.492Z,19.800
2023-09-21T03:18:23.276Z,19.750
2023-09-21T03:19:32.937Z,19.800
2023-09-21T03:20:19.479Z,19.800
2023-09-21T03:21:23.545Z,19.800
2023-09-21T03:22:20.660Z,19.800
2023-09-21T03:23:21.904Z,19.800
2023-09-21T03:24:25.719Z,19.800
2023-09-21T03:25:21.664Z,19.800
2023-09-21T03:26:20.416Z,19.700
2023-09-21T03:27:22.231Z,19.800
2023-09-21T03:28:24.921Z,19.700
2023-09-21T03:29:34.888Z,19.800
2023-09-21T03:30:26.201Z,19.800
2023-09-21T03:31:25.743Z,19.800
2023-09-21T03:32:21.846Z,19.700
2023-09-21T03:33:26.348Z,19.700
2023-09-21T03:34:27.263Z,19.700
2023-09-21T03:35:23.753Z,19.700
2023-09-21T03:36:21.339Z,19.800
2023-09-21T03:37:31.370Z,19.800
2023-09-21T03:40:29.501Z,19.700
2023-09-21T03:41:20.706Z,19.700
2023-09-21T03:42:23.834Z,19.700
2023-09-21T03:43:21.589Z,19.700
2023-09-21T03:44:30.597Z,19.700
2023-09-21T03:45:27.836Z,19.700
2023-09-21T03:47:33.090Z,19.700
2023-09-21T03:48:27.705Z,19.700
2023-09-21T03:49:25.933Z,19.700
2023-09-21T03:50:19.743Z,19.700
2023-09-21T03:51:29.518Z,19.700
2023-09-21T03:52:27.017Z,19.800
2023-09-21T03:53:23.063Z,19.800
2023-09-21T03:54:36.084Z,19.800
2023-09-21T03:56:25.215Z,19.800
2023-09-21T03:57:19.765Z,19.800
2023-09-21T03:58:29.855Z,19.800
2023-09-21T03:59:28.051Z,19.800
2023-09-21T04:00:21.561Z,19.800
2023-09-21T04:01:22.959Z,19.800
2023-09-21T04:02:32.089Z,19.800
2023-09-21T04:03:27.318Z,19.800
2023-09-21T04:04:20.181Z,19.750
2023-09-21T04:05:29.790Z,19.700
2023-09-21T04:06:26.851Z,19.800
2023-09-21T04:07:21.448Z,19.800
2023-09-21T04:08:26.025Z,19.800
2023-09-21T04:09:27.901Z,19.700
2023-09-21T04:10:25.223Z,19.700
2023-09-21T04:11:20.383Z,19.700
2023-09-21T04:12:32.182Z,19.700
2023-09-21T04:13:25.811Z,19.700
2023-09-21T04:14:24.204Z,19.700
2023-09-21T04:15:33.391Z,19.700
2023-09-21T04:16:22.806Z,19.700
2023-09-21T04:17:24.077Z,19.700
2023-09-21T04:18:19.648Z,19.700
2023-09-21T04:19:21.467Z,19.750
2023-09-21T04:20:27.614Z,19.800
2023-09-21T04:21:21.919Z,19.700
2023-09-21T04:22:34.635Z,19.800
2023-09-21T04:24:20.933Z,19.700
2023-09-21T04:25:20.461Z,19.700
2023-09-21T04:26:23.950Z,19.700
2023-09-21T04:27:25.723Z,19.700
2023-09-21T04:28:21.811Z,19.700
2023-09-21T04:29:31.578Z,19.700
2023-09-21T04:30:27.731Z,19.700
2023-09-21T04:31:26.495Z,19.700
2023-09-21T04:33:31.361Z,19.700
2023-09-21T04:34:22.470Z,19.700
2023-09-21T04:35:22.724Z,19.700
2023-09-21T04:37:27.526Z,19.700
2023-09-21T04:38:25.782Z,19.700
2023-09-21T04:39:22.175Z,19.700
2023-09-21T04:41:25.860Z,19.700
2023-09-21T04:42:23.137Z,19.700
2023-09-21T04:43:22.865Z,19.700
2023-09-21T04:44:27.481Z,19.700
2023-09-21T04:45:25.037Z,19.700
2023-09-21T04:46:19.783Z,19.700
2023-09-21T04:47:30.727Z,19.700
2023-09-21T04:48:26.536Z,19.700
2023-09-21T04:49:22.164Z,19.700
2023-09-21T04:50:24.655Z,19.700
2023-09-21T04:51:29.415Z,19.700
2023-09-21T04:52:23.517Z,19.600
2023-09-21T04:53:22.065Z,19.600
2023-09-21T04:54:19.589Z,19.600
2023-09-21T04:55:25.456Z,19.600
2023-09-21T04:57:29.234Z,19.700
2023-09-21T04:58:29.508Z,19.700
2023-09-21T04:59:24.389Z,19.700
2023-09-21T05:00:21.109Z,19.700
2023-09-21T05:01:23.823Z,19.700
2023-09-21T05:02:20.434Z,19.700
2023-09-21T05:03:21.705Z,19.700
2023-09-21T05:04:22.965Z,19.600
2023-09-21T05:05:28.527Z,19.600
2023-09-21T05:06:25.242Z,19.600
2023-09-21T05:07:19.382Z,19.600
2023-09-21T05:08:25.657Z,19.700
2023-09-21T05:09:27.317Z,19.600
2023-09-21T05:10:21.947Z,19.600
2023-09-21T05:11:26.975Z,19.600
2023-09-21T05:12:21.006Z,19.600
2023-09-21T05:13:23.847Z,19.600
2023-09-21T05:14:21.678Z,19.600
2023-09-21T05:15:31.636Z,19.600
2023-09-21T05:16:28.430Z,19.600
2023-09-21T05:18:32.333Z,19.600
2023-09-21T05:19:24.043Z,19.600
2023-09-21T05:20:23.756Z,19.600
2023-09-21T05:21:19.895Z,19.600
2023-09-21T05:22:33.724Z,19.600
2023-09-21T05:23:25.681Z,19.600
2023-09-21T05:24:23.858Z,19.600
2023-09-21T05:25:31.608Z,19.600
2023-09-21T05:26:28.133Z,19.600
2023-09-21T05:27:23.688Z,19.600
2023-09-21T05:28:21.556Z,19.600
2023-09-21T05:29:29.495Z,19.600
2023-09-21T05:30:23.766Z,19.600
2023-09-21T05:31:22.301Z,19.600
2023-09-21T05:32:23.205Z,19.600
2023-09-21T05:33:31.912Z,19.600
2023-09-21T05:34:26.840Z,19.600
2023-09-21T05:35:21.721Z,19.600
2023-09-21T05:36:30.787Z,19.600
2023-09-21T05:37:26.386Z,19.500
2023-09-21T05:38:22.102Z,19.500
2023-09-21T05:39:27.204Z,19.500
2023-09-21T05:40:20.229Z,19.500
2023-09-21T05:41:21.939Z,19.500
2023-09-21T05:42:21.897Z,19.500
2023-09-21T05:43:31.358Z,19.500
2023-09-21T05:44:27.343Z,19.500
2023-09-21T05:45:21.555Z,19.500
2023-09-21T05:46:31.829Z,19.500
2023-09-21T05:47:24.492Z,19.500
2023-09-21T05:48:24.077Z,19.500
2023-09-21T05:49:19.674Z,19.500
2023-09-21T05:50:29.826Z,19.500
2023-09-21T05:51:26.181Z,19.500
2023-09-21T05:52:21.515Z,19.500
2023-09-21T05:53:31.962Z,19.500
2023-09-21T05:54:29.935Z,19.500
2023-09-21T05:56:19.492Z,19.600
2023-09-21T05:57:23.546Z,19.500
2023-09-21T05:58:26.943Z,19.550
2023-09-21T05:59:21.968Z,19.600
2023-09-21T06:00:31.755Z,19.600
2023-09-21T06:01:29.322Z,19.600
2023-09-21T06:02:25.411Z,19.600
2023-09-21T06:04:29.820Z,19.600
2023-09-21T06:05:21.321Z,19.600
2023-09-21T06:06:25.372Z,19.600
2023-09-21T06:07:31.666Z,19.700
2023-09-21T06:08:29.411Z,19.700
2023-09-21T06:09:24.009Z,19.600
2023-09-21T06:10:24.555Z,19.700
2023-09-21T06:13:21.820Z,19.700
2023-09-21T06:14:31.901Z,19.700
2023-09-21T06:15:28.853Z,19.800
2023-09-21T06:16:24.202Z,19.800
2023-09-21T06:17:21.556Z,19.800
2023-09-21T06:18:20.384Z,19.800
2023-09-21T06:19:27.734Z,19.800
2023-09-21T06:20:21.776Z,19.800
2023-09-21T06:21:31.521Z,19.800
2023-09-21T06:22:29.104Z,19.800
2023-09-21T06:23:23.686Z,19.800
2023-09-21T06:24:21.487Z,19.900
2023-09-21T06:25:24.193Z,19.800
2023-09-21T06:26:26.839Z,19.900
2023-09-21T06:27:23.087Z,19.900
2023-09-21T06:28:19.925Z,19.900
2023-09-21T06:29:29.459Z,19.900
2023-09-21T06:30:23.692Z,19.900
2023-09-21T06:31:21.665Z,19.900
2023-09-21T06:32:30.029Z,19.900
2023-09-21T06:33:21.468Z,19.900
2023-09-21T06:34:23.579Z,19.900
2023-09-21T06:35:24.694Z,19.900
2023-09-21T06:36:27.973Z,19.900
2023-09-21T06:37:25.301Z,19.900
2023-09-21T06:38:19.941Z,19.900
2023-09-21T06:39:32.711Z,19.900
2023-09-21T06:41:23.479Z,19.900
2023-09-21T06:42:27.533Z,19.900
2023-09-21T06:43:28.379Z,19.900
2023-09-21T06:44:25.029Z,19.900
2023-09-21T06:45:21.502Z,19.900
2023-09-21T06:46:20.566Z,19.900
2023-09-21T06:47:25.921Z,20.000
2023-09-21T06:48:23.628Z,20.000
2023-09-21T06:50:23.069Z,20.000
2023-09-21T06:51:23.955Z,20.000
2023-09-21T06:52:19.646Z,20.000
2023-09-21T06:54:25.874Z,20.000
2023-09-21T06:55:22.990Z,20.000
2023-09-21T06:56:19.736Z,20.000
2023-09-21T06:57:28.451Z,20.100
2023-09-21T06:58:19.738Z,20.100
2023-09-21T06:59:19.948Z,20.100
2023-09-21T07:00:28.372Z,20.100
2023-09-21T07:01:25.465Z,20.100
2023-09-21T07:02:23.388Z,20.100
2023-09-21T07:03:24.369Z,20.100
2023-09-21T07:04:21.452Z,20.100
2023-09-21T07:05:24.374Z,20.100
2023-09-21T07:06:21.977Z,20.100
2023-09-21T07:07:30.656Z,20.100
2023-09-21T07:08:25.366Z,20.200
2023-09-21T07:09:38.912Z,20.100
2023-09-21T07:10:29.931Z,20.100
2023-09-21T07:11:21.301Z,20.200
2023-09-21T07:12:23.924Z,20.200
2023-09-21T07:13:21.706Z,20.200
2023-09-21T07:14:29.366Z,20.200
2023-09-21T07:15:19.903Z,20.200
2023-09-21T07:16:21.818Z,20.200
2023-09-21T07:17:32.288Z,20.200
2023-09-21T07:19:23.632Z,20.300
2023-09-21T07:20:19.740Z,20.300
2023-09-21T07:21:30.050Z,20.300
2023-09-21T07:22:22.588Z,20.300
2023-09-21T07:23:23.536Z,20.300
2023-09-21T07:24:33.702Z,20.300
2023-09-21T07:25:30.533Z,20.200
2023-09-21T07:27:19.535Z,20.200
2023-09-21T07:28:24.449Z,20.200
2023-09-21T07:29:26.984Z,20.200
2023-09-21T07:30:21.525Z,20.200
2023-09-21T07:31:33.410Z,20.200
2023-09-21T07:32:28.899Z,20.200
2023-09-21T07:34:35.475Z,20.300
2023-09-21T07:36:28.595Z,20.200
2023-09-21T07:37:21.772Z,20.300
2023-09-21T07:38:32.171Z,20.300
2023-09-21T07:39:29.809Z,20.300
2023-09-21T07:40:23.900Z,20.300
2023-09-21T07:41:20.637Z,20.300
2023-09-21T07:42:33.254Z,20.300
2023-09-21T07:43:22.914Z,20.300
2023-09-21T07:44:21.699Z,20.300
2023-09-21T07:45:32.915Z,20.300
2023-09-21T07:46:29.047Z,20.400
2023-09-21T07:47:26.828Z,20.400
2023-09-21T07:48:22.018Z,20.400
2023-09-21T07:49:21.262Z,20.400
2023-09-21T07:50:26.570Z,20.400
2023-09-21T07:51:21.955Z,20.400
2023-09-21T07:52:31.658Z,20.450
2023-09-21T07:53:29.481Z,20.500
2023-09-21T07:54:24.158Z,20.500
2023-09-21T07:55:20.488Z,20.500
2023-09-21T07:56:26.676Z,20.500
2023-09-21T07:57:28.041Z,20.500
2023-09-21T07:58:24.140Z,20.500
2023-09-21T07:59:32.518Z,20.550
2023-09-21T08:00:27.416Z,20.500
2023-09-21T08:01:24.968Z,20.600
2023-09-21T08:02:19.872Z,20.600
2023-09-21T08:03:31.546Z,20.600
2023-09-21T08:04:22.914Z,20.600
2023-09-21T08:05:23.578Z,20.600
2023-09-21T08:06:22.575Z,20.600
2023-09-21T08:07:27.303Z,20.650
2023-09-21T08:08:25.583Z,20.700
2023-09-21T08:09:32.111Z,20.700
2023-09-21T08:10:30.158Z,20.700
2023-09-21T08:11:28.626Z,20.700
2023-09-21T08:13:26.824Z,20.700
2023-09-21T08:14:28.132Z,20.700
2023-09-21T08:15:25.015Z,20.700
2023-09-21T08:16:21.030Z,20.700
2023-09-21T08:17:30.936Z,20.800
2023-09-21T08:18:27.143Z,20.800
2023-09-21T08:19:26.171Z,20.800
2023-09-21T08:21:23.704Z,20.800
2023-09-21T08:22:23.707Z,20.850
2023-09-21T08:23:19.372Z,20.900
2023-09-21T08:24:30.010Z,20.900
2023-09-21T08:25:27.912Z,20.900
2023-09-21T08:26:23.501Z,21.000
2023-09-21T08:27:23.245Z,20.900
2023-09-21T08:28:27.959Z,20.900
2023-09-21T08:29:23.960Z,21.000
2023-09-21T08:30:19.815Z,21.000
2023-09-21T08:31:31.001Z,21.000
2023-09-21T08:32:27.611Z,21.000
2023-09-21T08:33:21.934Z,21.000
2023-09-21T08:34:26.384Z,21.000
2023-09-21T08:35:29.787Z,21.000
2023-09-21T08:36:25.729Z,21.000
2023-09-21T08:37:20.030Z,21.000
2023-09-21T08:38:23.544Z,21.000
2023-09-21T08:39:25.692Z,21.000
2023-09-21T08:40:23.827Z,21.000
2023-09-21T08:41:31.763Z,21.100
2023-09-21T08:42:22.666Z,21.000
2023-09-21T08:43:29.828Z,21.100
2023-09-21T08:44:20.163Z,21.100
2023-09-21T08:45:26.125Z,21.100
2023-09-21T08:46:25.937Z,21.000
2023-09-21T08:47:34.768Z,21.000
2023-09-21T08:48:34.373Z,21.000
2023-09-21T08:50:19.661Z,21.100
2023-09-21T08:51:20.006Z,21.100
2023-09-21T08:52:29.371Z,21.100
2023-09-21T08:53:25.619Z,21.100
2023-09-21T08:54:23.557Z,21.100
2023-09-21T08:55:33.999Z,21.200
2023-09-21T08:56:22.591Z,21.200
2023-09-21T08:57:23.433Z,21.200
2023-09-21T08:58:19.980Z,21.200
2023-09-21T08:59:21.681Z,21.200
2023-09-21T09:00:25.398Z,21.200
2023-09-21T09:01:23.663Z,21.300
2023-09-21T09:02:33.707Z,21.300
2023-09-21T09:03:28.253Z,21.300
2023-09-21T09:04:25.793Z,21.200
2023-09-21T09:05:20.473Z,21.200
2023-09-21T09:07:20.928Z,21.200
2023-09-21T09:08:21.549Z,21.300
2023-09-21T09:09:35.048Z,21.300
2023-09-21T09:11:25.101Z,21.400
2023-09-21T09:12:19.660Z,21.500
2023-09-21T09:13:29.798Z,21.500
2023-09-21T09:14:27.339Z,21.600
2023-09-21T09:15:21.577Z,21.600
2023-09-21T09:16:33.643Z,21.600
2023-09-21T09:17:27.728Z,21.700
2023-09-21T09:18:24.034Z,21.700
2023-09-21T09:19:20.771Z,21.800
2023-09-21T09:20:21.706Z,21.800
2023-09-21T09:21:26.374Z,21.800
2023-09-21T09:22:22.210Z,21.900
2023-09-21T09:23:32.098Z,21.950
2023-09-21T09:24:29.210Z,22.000
2023-09-21T09:25:23.978Z,22.000
2023-09-21T09:26:21.520Z,22.100
2023-09-21T09:27:27.536Z,22.100
2023-09-21T09:28:25.964Z,22.100
2023-09-21T09:29:23.000Z,22.200
2023-09-21T09:30:32.799Z,22.300
2023-09-21T09:31:27.779Z,22.300
2023-09-21T09:32:25.901Z,22.300
2023-09-21T09:33:20.058Z,22.300
2023-09-21T09:34:30.245Z,22.300
2023-09-21T09:36:21.973Z,22.300
2023-09-21T09:37:19.336Z,22.200
2023-09-21T09:38:27.407Z,22.300
2023-09-21T09:39:25.788Z,22.300
2023-09-21T09:40:20.323Z,22.300
2023-09-21T09:41:29.487Z,22.300
2023-09-21T09:42:29.959Z,22.300
2023-09-21T09:44:25.489Z,22.400
2023-09-21T09:45:29.132Z,22.400
2023-09-21T09:46:23.547Z,22.400
2023-09-21T09:47:20.148Z,22.400
2023-09-21T09:48:29.414Z,22.500
2023-09-21T09:49:25.319Z,22.500
2023-09-21T09:50:22.909Z,22.600
2023-09-21T09:51:27.905Z,22.600
2023-09-21T09:53:23.830Z,22.600
2023-09-21T09:54:20.838Z,22.500
2023-09-21T09:55:31.663Z,22.500
2023-09-21T09:56:25.584Z,22.600
2023-09-21T09:57:23.591Z,22.600
2023-09-21T09:58:21.815Z,22.600
2023-09-21T09:59:26.961Z,22.600
2023-09-21T10:00:23.998Z,22.600
2023-09-21T10:01:19.921Z,22.600
2023-09-21T10:02:31.056Z,22.600
2023-09-21T10:03:26.201Z,22.600
2023-09-21T10:04:21.377Z,22.700
2023-09-21T10:05:27.247Z,22.700
2023-09-21T10:06:28.505Z,22.700
2023-09-21T10:07:25.339Z,22.700
2023-09-21T10:08:19.781Z,22.700
2023-09-21T10:09:32.007Z,22.700
2023-09-21T10:10:25.921Z,22.700
2023-09-21T10:11:21.823Z,22.700
2023-09-21T10:12:21.829Z,22.700
2023-09-21T10:13:23.225Z,22.800
2023-09-21T10:14:26.065Z,22.700
2023-09-21T10:15:20.286Z,22.700
2023-09-21T10:16:32.359Z,22.700
2023-09-21T10:17:25.756Z,22.700
2023-09-21T10:18:23.836Z,22.700
2023-09-21T10:19:24.179Z,22.700
2023-09-21T10:20:27.590Z,22.700
2023-09-21T10:21:20.603Z,22.700
2023-09-21T10:22:22.332Z,22.700
2023-09-21T10:23:21.344Z,22.700
2023-09-21T10:24:28.063Z,22.700
2023-09-21T10:25:23.656Z,22.700
2023-09-21T10:26:27.299Z,22.700
2023-09-21T10:27:27.566Z,22.700
2023-09-21T10:28:24.855Z,22.800
2023-09-21T10:30:20.366Z,22.900
2023-09-21T10:31:27.400Z,22.950
2023-09-21T10:32:22.053Z,23.100
2023-09-21T10:34:29.342Z,23.200
2023-09-21T10:35:25.680Z,23.200
2023-09-21T10:36:24.336Z,23.200
2023-09-21T10:38:25.816Z,23.300
2023-09-21T10:39:24.082Z,23.300
2023-09-21T10:40:34.697Z,23.200
2023-09-21T10:41:20.815Z,23.200
2023-09-21T10:42:25.852Z,23.300
2023-09-21T10:43:21.828Z,23.400
2023-09-21T10:44:30.014Z,23.400
2023-09-21T10:45:20.752Z,23.400
2023-09-21T10:46:22.083Z,23.450
2023-09-21T10:47:32.165Z,23.400
2023-09-21T10:48:25.436Z,23.400
2023-09-21T10:49:23.851Z,23.400
2023-09-21T10:50:21.403Z,23.500
2023-09-21T10:51:23.560Z,23.500
2023-09-21T10:52:27.200Z,23.500
2023-09-21T10:53:21.642Z,23.500
2023-09-21T10:54:33.276Z,23.600
2023-09-21T10:55:30.225Z,23.600
2023-09-21T10:56:24.158Z,23.700
2023-09-21T10:57:21.476Z,23.700
2023-09-21T10:58:30.369Z,23.800
2023-09-21T10:59:21.776Z,23.900
2023-09-21T11:00:22.484Z,24.000
2023-09-21T11:01:32.047Z,24.000
2023-09-21T11:02:30.539Z,24.000
2023-09-21T11:03:25.266Z,23.900
2023-09-21T11:04:19.559Z,23.900
2023-09-21T11:05:31.418Z,23.900
2023-09-21T11:08:32.883Z,23.800
2023-09-21T11:09:27.846Z,23.800
2023-09-21T11:10:21.557Z,23.800
2023-09-21T11:11:21.360Z,23.700
2023-09-21T11:12:30.097Z,23.700
2023-09-21T11:13:30.430Z,23.700
2023-09-21T11:15:25.081Z,23.600
2023-09-21T11:16:29.667Z,23.600
2023-09-21T11:17:23.919Z,23.600
2023-09-21T11:18:20.008Z,23.600
2023-09-21T11:19:29.842Z,23.600
2023-09-21T11:20:27.346Z,23.600
2023-09-21T11:21:21.945Z,23.600
2023-09-21T11:22:28.551Z,23.600
2023-09-21T11:23:19.863Z,23.600
2023-09-21T11:24:25.501Z,23.600
2023-09-21T11:25:22.677Z,23.600
2023-09-21T11:26:29.708Z,23.600
2023-09-21T11:27:26.980Z,23.700
2023-09-21T11:28:21.814Z,23.700
2023-09-21T11:30:23.500Z,23.700
2023-09-21T11:31:25.730Z,23.700
2023-09-21T11:32:19.972Z,23.700
2023-09-21T11:33:30.965Z,23.700
2023-09-21T11:34:28.027Z,23.700
2023-09-21T11:35:23.860Z,23.700
2023-09-21T11:36:28.126Z,23.700
2023-09-21T11:37:20.447Z,23.700
2023-09-21T11:38:20.468Z,23.800
2023-09-21T11:39:19.758Z,23.800
2023-09-21T11:40:30.095Z,23.800
2023-09-21T11:41:27.973Z,23.800
2023-09-21T11:42:21.665Z,23.800
2023-09-21T11:43:34.366Z,23.800
2023-09-21T11:44:26.042Z,23.900
2023-09-21T11:45:24.787Z,23.900
2023-09-21T11:46:21.896Z,23.900
2023-09-21T11:47:32.121Z,23.900
2023-09-21T11:48:26.201Z,23.900
2023-09-21T11:49:23.142Z,23.900
2023-09-21T11:50:32.178Z,23.900
2023-09-21T11:51:30.399Z,23.900
2023-09-21T11:53:21.703Z,23.900
2023-09-21T11:54:30.072Z,23.900
2023-09-21T11:55:27.914Z,23.850
2023-09-21T11:56:22.168Z,23.800
2023-09-21T11:57:19.539Z,23.800
2023-09-21T11:58:28.224Z,23.800
2023-09-21T11:59:25.565Z,23.700
2023-09-21T12:01:30.696Z,23.700
2023-09-21T12:02:25.947Z,23.700
2023-09-21T12:03:25.122Z,23.700
2023-09-21T12:04:22.805Z,23.700
2023-09-21T12:05:27.866Z,23.600
2023-09-21T12:06:24.975Z,23.600
2023-09-21T12:07:19.679Z,23.600
2023-09-21T12:08:23.208Z,23.600
2023-09-21T12:09:25.928Z,23.500
2023-09-21T12:10:23.636Z,23.500
2023-09-21T12:11:28.065Z,23.500
2023-09-21T12:12:27.880Z,23.500
2023-09-21T12:13:25.367Z,23.400
2023-09-21T12:14:20.753Z,23.400
2023-09-21T12:15:22.025Z,23.400
2023-09-21T12:16:19.429Z,23.400
2023-09-21T12:17:22.032Z,23.400
2023-09-21T12:18:30.738Z,23.400
2023-09-21T12:19:27.472Z,23.400
2023-09-21T12:20:25.098Z,23.500
2023-09-21T12:21:20.009Z,23.500
2023-09-21T12:22:24.497Z,23.500
2023-09-21T12:24:22.794Z,23.500
2023-09-21T12:25:32.122Z,23.600
2023-09-21T12:26:29.627Z,23.500
2023-09-21T12:27:23.825Z,23.600
2023-09-21T12:28:21.420Z,23.600
2023-09-21T12:29:30.017Z,23.600
2023-09-21T12:31:21.839Z,23.600
2023-09-21T12:32:34.627Z,23.600
2023-09-21T12:33:41.346Z,23.600
2023-09-21T12:34:23.757Z,23.600
2023-09-21T12:35:21.701Z,23.600
2023-09-21T12:36:44.232Z,23.500
2023-09-21T12:38:26.111Z,23.500
2023-09-21T12:39:31.780Z,23.500
2023-09-21T12:40:24.622Z,23.500
2023-09-21T12:41:25.959Z,23.500
2023-09-21T12:42:19.881Z,23.400
2023-09-21T12:43:32.421Z,23.400
2023-09-21T12:44:20.374Z,23.400
2023-09-21T12:45:22.347Z,23.400
2023-09-21T12:47:29.487Z,23.400
2023-09-21T12:48:23.864Z,23.400
2023-09-21T12:49:20.111Z,23.300
2023-09-21T12:51:24.982Z,23.300
2023-09-21T12:52:21.780Z,23.300
2023-09-21T12:53:20.319Z,23.200
2023-09-21T12:54:30.281Z,23.200
2023-09-21T12:55:24.640Z,23.200
2023-09-21T12:56:20.989Z,23.200
2023-09-21T12:57:31.773Z,23.200
2023-09-21T12:58:25.962Z,23.200
2023-09-21T12:59:23.707Z,23.100
2023-09-21T13:00:24.391Z,23.100
2023-09-21T13:01:22.603Z,23.100
2023-09-21T13:02:20.552Z,23.100
2023-09-21T13:03:19.870Z,23.100
2023-09-21T13:04:31.444Z,23.100
2023-09-21T13:05:28.923Z,23.100
2023-09-21T13:06:21.659Z,23.100
2023-09-21T13:07:29.398Z,23.100
2023-09-21T13:08:21.505Z,23.100
2023-09-21T13:09:19.782Z,23.100
2023-09-21T13:10:21.755Z,23.100
2023-09-21T13:11:32.485Z,23.150
2023-09-21T13:12:26.137Z,23.200
2023-09-21T13:13:23.025Z,23.200
2023-09-21T13:14:35.279Z,23.200
2023-09-21T13:16:23.475Z,23.200
2023-09-21T13:17:19.752Z,23.300
2023-09-21T13:18:33.663Z,23.300
2023-09-21T13:19:25.866Z,23.300
2023-09-21T13:20:21.768Z,23.300
2023-09-21T13:21:33.845Z,23.300
2023-09-21T13:22:31.149Z,23.300
2023-09-21T13:24:20.508Z,23.300
2023-09-21T13:25:45.777Z,23.300
2023-09-21T13:26:27.885Z,23.300
2023-09-21T13:27:22.302Z,23.300
2023-09-21T13:28:31.812Z,23.300
2023-09-21T13:29:29.187Z,23.300
2023-09-21T13:30:26.629Z,23.300
2023-09-21T13:33:27.378Z,23.300
2023-09-21T13:34:22.447Z,23.400
2023-09-21T13:35:32.209Z,23.400
2023-09-21T13:36:29.672Z,23.400
2023-09-21T13:37:24.857Z,23.500
2023-09-21T13:38:26.362Z,23.500
2023-09-21T13:40:25.817Z,23.500
2023-09-21T13:41:21.818Z,23.500
2023-09-21T13:42:35.014Z,23.500
2023-09-21T13:43:27.666Z,23.500
2023-09-21T13:44:25.532Z,23.400